• Join FlightAware (Why Join?)
  • Login
  • US Flag 
08:44PM EDT


 

Airport Tracker/Info


-or-


 

Live Flight TrackerFlight Track Log ✈ N3801T ✈ 10-Jun-2013 ✈ KPNM - KPNM

Flight Track Log - Related Links

Times and Time Zones

All times are in EDT time to prevent confusion due to time zone crossing. See the N3801T flight status page for this flight to view local times or setup timezone preferences in your user account.

Time Position Orientation Groundspeed Altitude Reporting Facility
EDT Latitude Longitude Course Direction KTS MPH feet Rate Location/Type
12:59PM 45.5744 -93.6411 265° West 146 168 2,200  Level Minneapolis Center
01:00PM 45.5653 -93.6692 245° Southwest 104 120 2,900 720 Climbing Minneapolis Center
01:01PM 45.5599 -93.6082 265° West  Level Estimated
01:01PM 45.5419 -93.6786 196° South 88 101 3,700  Level Minneapolis Center
01:02PM 45.5599 -93.6082 265° West  Level Estimated
01:02PM 45.5169 -93.6886 196° South 93 107 4,000  Level Minneapolis Center
01:03PM 45.5599 -93.6082 265° West  Level Estimated
01:03PM 45.4839 -93.7036 198° South 121 139 3,900  Level Minneapolis Center
01:04PM 45.5599 -93.6082 265° West  Level Estimated
01:04PM 45.4456 -93.7181 195° South 119 137 3,900  Level Minneapolis Center
01:05PM 45.4228 -93.7494 224° Southwest 116 133 3,900  Level Minneapolis Center
01:06PM 45.4161 -93.7906 257° West 118 136 3,900 -180 Level Minneapolis Center
01:07PM 45.4258 -93.8361 287° West 121 139 3,600 -480 Descending Minneapolis Center
01:08PM 45.4331 -93.8850 282° West 124 143 3,000 -540 Descending Minneapolis Center
01:09PM 45.4561 -93.9108 322° Northwest 115 132 2,500 -300 Descending Minneapolis Center
01:10PM 45.4697 -93.9608 291° West 110 127 2,500 -120 Level Minneapolis Center
01:12PM 45.5142 -94.0133 320° Northwest 107 123 2,200  Descending Minneapolis Center
01:14PM 45.5367 -94.0065 84° East  Level FlightAware Approximate
01:15PM 45.5736 -94.1356 90° East 167 192 2,700  Level Minneapolis Center
01:17PM 45.5897 -94.1681 305° West 111 128 3,300 480 Climbing Minneapolis Center
01:18PM 45.5997 -94.1522 48° Northeast 123 142 3,800 300 Climbing Minneapolis Center
01:19PM 45.5778 -94.1167 131° Southeast 125 144 4,000  Climbing Minneapolis Center
01:20PM 45.5608 -94.0694 117° Southeast 130 150 3,800 -180 Descending Minneapolis Center
01:21PM 45.5500 -93.6553 90° East  Level FlightAware Approximate
01:21PM 45.5283 -94.0283 138° Southeast 126 145 3,700  Level Minneapolis Center
01:22PM 45.4964 -94.0075 155° Southeast 126 145 3,400 -240 Descending Minneapolis Center
01:23PM 45.4942 -93.9675 95° East 119 137 3,300 -120 Descending Minneapolis Center
01:24PM 45.4817 -93.9561 147° Southeast 114 131 3,200 -240 Descending Minneapolis Center
01:25PM 45.4994 -93.9897 307° West 111 128 2,900 -360 Descending Minneapolis Center
01:26PM 45.5239 -94.0222 317° Northwest 109 125 2,500  Descending Minneapolis Center
01:28PM 45.5329 -93.9576 79° East  Level FlightAware Approximate
01:29PM 45.5867 -94.1083 90° East 67 77 2,900  Level Minneapolis Center
01:30PM 45.6131 -94.1289 331° Northwest 102 117 3,400 480 Climbing Minneapolis Center
01:31PM 45.6075 -94.1678 258° West 104 120 3,900 240 Climbing Minneapolis Center
01:32PM 45.5672 -94.1658 178° South 119 137 3,900  Level Minneapolis Center
01:33PM 45.5328 -94.1644 178° South 124 143 3,900  Level Minneapolis Center
01:35PM 45.5500 -93.7113 90° East  Level FlightAware Approximate
01:35PM 45.4983 -94.1611 176° South 125 144 3,900  Level Minneapolis Center
01:36PM 45.4628 -94.1606 179° South 127 146 3,900  Level Minneapolis Center
01:37PM 45.4297 -94.1592 178° South 122 140 3,900  Level Minneapolis Center
01:38PM 45.3936 -94.1442 164° South 117 135 4,000  Climbing Minneapolis Center
01:39PM 45.3775 -94.1000 117° Southeast 124 143 4,000  Level Minneapolis Center
01:40PM 45.3625 -94.0564 116° Southeast 123 142 4,000 -60 Level Minneapolis Center
01:41PM 45.3411 -94.0167 127° Southeast 127 146 3,900  Descending Minneapolis Center
01:42PM 45.3336 -93.9703 103° East 122 140 4,000  Climbing Minneapolis Center
01:43PM 45.3339 -93.9203 90° East 126 145 4,000  Level Minneapolis Center
01:44PM 45.3511 -93.8675 65° Northeast 125 144 4,000 -120 Level Minneapolis Center
01:45PM 45.3850 -93.8603 North 129 148 3,800 -360 Descending Minneapolis Center
01:46PM 45.4186 -93.8747 343° North 129 148 3,300 -360 Descending Minneapolis Center
01:47PM 45.4314 -93.9183 293° West 118 136 3,100 -300 Descending Minneapolis Center
01:48PM 45.4619 -93.9308 344° North 113 130 2,700 -300 Descending Minneapolis Center
01:49PM 45.4844 -93.9664 312° West 104 120 2,500 -240 Descending Minneapolis Center
01:50PM 45.4992 -93.9950 306° West 103 119 2,200 -300 Descending Minneapolis Center
01:52PM 45.5065 -93.9386 79° East  Level FlightAware Approximate